createdAt,value
2019-03-29T00:01:02.173Z,1014.51
2019-03-29T00:02:12.926Z,1014.54
2019-03-29T00:03:23.696Z,1014.53
2019-03-29T00:04:34.447Z,1014.52
2019-03-29T00:05:45.189Z,1014.47
2019-03-29T00:06:55.940Z,1014.48
2019-03-29T00:08:09.091Z,1014.48
2019-03-29T00:09:18.939Z,1014.50
2019-03-29T00:10:29.687Z,1014.49
2019-03-29T00:11:40.435Z,1014.45
2019-03-29T00:12:51.193Z,1014.47
2019-03-29T00:14:01.958Z,1014.49
2019-03-29T00:15:12.722Z,1014.50
2019-03-29T00:16:23.952Z,1014.53
2019-03-29T00:17:34.705Z,1014.54
2019-03-29T00:18:45.461Z,1014.54
2019-03-29T00:19:57.213Z,1014.51
2019-03-29T00:21:07.954Z,1014.53
2019-03-29T00:22:18.690Z,1014.54
2019-03-29T00:23:29.456Z,1014.53
2019-03-29T00:24:40.421Z,1014.53
2019-03-29T00:25:52.426Z,1014.54
2019-03-29T00:27:03.686Z,1014.50
2019-03-29T00:28:14.432Z,1014.51
2019-03-29T00:29:25.187Z,1014.56
2019-03-29T00:30:35.927Z,1014.52
2019-03-29T00:31:46.670Z,1014.48
2019-03-29T00:32:57.989Z,1014.49
2019-03-29T00:34:08.168Z,1014.49
2019-03-29T00:35:18.907Z,1014.51
2019-03-29T00:36:30.652Z,1014.52
2019-03-29T00:37:52.707Z,1014.52
2019-03-29T00:38:52.137Z,1014.53
2019-03-29T00:40:03.374Z,1014.52
2019-03-29T00:41:14.115Z,1014.49
2019-03-29T00:42:24.859Z,1014.44
2019-03-29T00:43:36.109Z,1014.41
2019-03-29T00:44:46.847Z,1014.42
2019-03-29T00:45:57.581Z,1014.43
2019-03-29T00:47:08.335Z,1014.41
2019-03-29T00:48:19.075Z,1014.43
2019-03-29T00:49:29.834Z,1014.42
2019-03-29T00:50:41.577Z,1014.41
2019-03-29T00:51:52.309Z,1014.40
2019-03-29T00:53:03.038Z,1014.42
2019-03-29T00:54:14.281Z,1014.41
2019-03-29T00:55:26.583Z,1014.43
2019-03-29T00:56:37.324Z,1014.41
2019-03-29T00:57:48.075Z,1014.41
2019-03-29T00:58:58.814Z,1014.41
2019-03-29T01:00:10.065Z,1014.40
2019-03-29T01:01:20.788Z,1014.38
2019-03-29T01:02:32.033Z,1014.44
2019-03-29T01:03:42.765Z,1014.39
2019-03-29T01:04:54.294Z,1014.40
2019-03-29T01:06:04.234Z,1014.41
2019-03-29T01:07:15.966Z,1014.40
2019-03-29T01:08:26.701Z,1014.41
2019-03-29T01:09:38.443Z,1014.38
2019-03-29T01:10:49.182Z,1014.37
2019-03-29T01:11:59.921Z,1014.37
2019-03-29T01:13:10.658Z,1014.35
2019-03-29T01:14:21.401Z,1014.33
2019-03-29T01:15:32.132Z,1014.33
2019-03-29T01:16:42.879Z,1014.33
2019-03-29T01:17:53.612Z,1014.32
2019-03-29T01:19:04.351Z,1014.33
2019-03-29T01:20:15.415Z,1014.30
2019-03-29T01:21:27.151Z,1014.33
2019-03-29T01:22:37.895Z,1014.29
2019-03-29T01:23:49.295Z,1014.28
2019-03-29T01:24:59.371Z,1014.27
2019-03-29T01:26:10.101Z,1014.24
2019-03-29T01:27:20.849Z,1014.24
2019-03-29T01:28:31.585Z,1014.24
2019-03-29T01:29:42.806Z,1014.21
2019-03-29T01:30:53.550Z,1014.20
2019-03-29T01:32:04.292Z,1014.21
2019-03-29T01:33:15.031Z,1014.24
2019-03-29T01:34:26.253Z,1014.23
2019-03-29T01:35:36.999Z,1014.22
2019-03-29T01:36:47.731Z,1014.18
2019-03-29T01:37:58.595Z,1014.17
2019-03-29T01:39:09.337Z,1014.18
2019-03-29T01:40:20.080Z,1014.15
2019-03-29T01:41:30.823Z,1014.16
2019-03-29T01:42:41.543Z,1014.14
2019-03-29T01:43:52.288Z,1014.14
2019-03-29T01:45:03.496Z,1014.15
2019-03-29T01:46:14.229Z,1014.15
2019-03-29T01:47:24.955Z,1014.15
2019-03-29T01:48:35.681Z,1014.16
2019-03-29T01:49:46.415Z,1014.16
2019-03-29T01:50:57.156Z,1014.08
2019-03-29T01:52:08.379Z,1014.09
2019-03-29T01:53:19.112Z,1014.08
2019-03-29T01:54:30.392Z,1014.10
2019-03-29T01:55:40.575Z,1014.09
2019-03-29T01:56:51.327Z,1014.11
2019-03-29T01:58:02.079Z,1014.13
2019-03-29T01:59:13.279Z,1014.09
2019-03-29T02:00:24.005Z,1014.09
2019-03-29T02:01:34.749Z,1014.11
2019-03-29T02:02:46.220Z,1014.10
2019-03-29T02:03:56.204Z,1014.12
2019-03-29T02:05:06.937Z,1014.11
2019-03-29T02:06:17.692Z,1014.11
2019-03-29T02:07:28.419Z,1014.13
2019-03-29T02:08:39.161Z,1014.15
2019-03-29T02:09:49.885Z,1014.14
2019-03-29T02:11:01.115Z,1014.11
2019-03-29T02:12:12.348Z,1014.12
2019-03-29T02:13:23.073Z,1014.08
2019-03-29T02:14:35.293Z,1014.04
2019-03-29T02:15:46.019Z,1014.03
2019-03-29T02:16:56.757Z,1014.05
2019-03-29T02:18:07.588Z,1014.03
2019-03-29T02:19:18.322Z,1014.03
2019-03-29T02:20:29.588Z,1014.04
2019-03-29T02:21:40.329Z,1014.03
2019-03-29T02:22:51.652Z,1014.03
2019-03-29T02:24:02.333Z,1014.02
2019-03-29T02:25:13.047Z,1014.01
2019-03-29T02:26:23.782Z,1013.95
2019-03-29T02:27:34.522Z,1013.98
2019-03-29T02:28:45.753Z,1013.95
2019-03-29T02:29:56.484Z,1013.96
2019-03-29T02:31:07.232Z,1013.98
2019-03-29T02:32:18.000Z,1013.94
2019-03-29T02:33:28.716Z,1013.98
2019-03-29T02:34:39.456Z,1013.97
2019-03-29T02:35:50.194Z,1013.96
2019-03-29T02:37:02.207Z,1013.90
2019-03-29T02:38:12.659Z,1013.86
2019-03-29T02:39:24.433Z,1013.89
2019-03-29T02:40:35.245Z,1013.87
2019-03-29T02:41:46.872Z,1013.86
2019-03-29T02:42:56.613Z,1013.86
2019-03-29T02:44:07.936Z,1013.85
2019-03-29T02:45:18.789Z,1013.85
2019-03-29T02:46:29.525Z,1013.82
2019-03-29T02:47:40.777Z,1013.81
2019-03-29T02:48:51.529Z,1013.82
2019-03-29T02:50:02.277Z,1013.77
2019-03-29T02:51:13.019Z,1013.77
2019-03-29T02:52:24.260Z,1013.76
2019-03-29T02:53:35.011Z,1013.76
2019-03-29T02:54:45.765Z,1013.72
2019-03-29T02:55:58.001Z,1013.70
2019-03-29T02:57:09.750Z,1013.67
2019-03-29T02:58:20.997Z,1013.66
2019-03-29T02:59:31.748Z,1013.67
2019-03-29T03:00:43.590Z,1013.68
2019-03-29T03:01:55.351Z,1013.67
2019-03-29T03:03:06.094Z,1013.67
2019-03-29T03:04:16.858Z,1013.66
2019-03-29T03:05:27.595Z,1013.67
2019-03-29T03:06:38.350Z,1013.67
2019-03-29T03:07:49.107Z,1013.65
2019-03-29T03:09:13.423Z,1013.65
2019-03-29T03:10:11.098Z,1013.61
2019-03-29T03:11:21.843Z,1013.61
2019-03-29T03:12:33.097Z,1013.54
2019-03-29T03:13:44.857Z,1013.57
2019-03-29T03:14:55.605Z,1013.59
2019-03-29T03:16:06.366Z,1013.60
2019-03-29T03:17:17.125Z,1013.58
2019-03-29T03:18:28.374Z,1013.59
2019-03-29T03:19:39.622Z,1013.57
2019-03-29T03:20:50.372Z,1013.59
2019-03-29T03:22:01.132Z,1013.60
2019-03-29T03:23:12.383Z,1013.62
2019-03-29T03:24:23.145Z,1013.55
2019-03-29T03:25:34.387Z,1013.56
2019-03-29T03:26:45.145Z,1013.57
2019-03-29T03:27:55.913Z,1013.56
2019-03-29T03:29:06.688Z,1013.60
2019-03-29T03:30:17.456Z,1013.59
2019-03-29T03:31:28.209Z,1013.61
2019-03-29T03:32:40.450Z,1013.59
2019-03-29T03:33:51.227Z,1013.60
2019-03-29T03:35:01.997Z,1013.60
2019-03-29T03:36:13.199Z,1013.61
2019-03-29T03:37:23.957Z,1013.58
2019-03-29T03:38:34.715Z,1013.55
2019-03-29T03:39:45.968Z,1013.57
2019-03-29T03:40:57.212Z,1013.52
2019-03-29T03:42:08.472Z,1013.55
2019-03-29T03:43:19.231Z,1013.54
2019-03-29T03:44:30.000Z,1013.58
2019-03-29T03:45:41.230Z,1013.58
2019-03-29T03:46:51.985Z,1013.60
2019-03-29T03:48:02.749Z,1013.60
2019-03-29T03:49:14.162Z,1013.56
2019-03-29T03:50:25.762Z,1013.53
2019-03-29T03:51:36.503Z,1013.56
2019-03-29T03:52:47.269Z,1013.55
2019-03-29T03:53:58.032Z,1013.53
2019-03-29T03:55:08.793Z,1013.55
2019-03-29T03:56:19.550Z,1013.53
2019-03-29T03:57:30.311Z,1013.54
2019-03-29T03:58:41.074Z,1013.54
2019-03-29T03:59:51.833Z,1013.58
2019-03-29T04:01:03.129Z,1013.55
2019-03-29T04:02:14.341Z,1013.50
2019-03-29T04:03:25.591Z,1013.52
2019-03-29T04:04:37.774Z,1013.52
2019-03-29T04:05:47.105Z,1013.55
2019-03-29T04:06:58.360Z,1013.52
2019-03-29T04:08:09.633Z,1013.55
2019-03-29T04:09:20.382Z,1013.52
2019-03-29T04:10:31.142Z,1013.52
2019-03-29T04:11:41.894Z,1013.53
2019-03-29T04:12:52.644Z,1013.51
2019-03-29T04:14:03.400Z,1013.52
2019-03-29T04:15:14.179Z,1013.49
2019-03-29T04:16:25.949Z,1013.52
2019-03-29T04:17:36.700Z,1013.50
2019-03-29T04:18:47.602Z,1013.51
2019-03-29T04:19:58.357Z,1013.48
2019-03-29T04:21:09.124Z,1013.52
2019-03-29T04:22:19.884Z,1013.54
2019-03-29T04:23:30.635Z,1013.51
2019-03-29T04:24:41.877Z,1013.49
2019-03-29T04:25:52.649Z,1013.49
2019-03-29T04:27:04.882Z,1013.49
2019-03-29T04:28:16.141Z,1013.42
2019-03-29T04:29:26.886Z,1013.46
2019-03-29T04:30:37.645Z,1013.45
2019-03-29T04:31:49.887Z,1013.45
2019-03-29T04:33:00.633Z,1013.48
2019-03-29T04:34:11.913Z,1013.46
2019-03-29T04:35:22.630Z,1013.49
2019-03-29T04:36:33.381Z,1013.42
2019-03-29T04:37:44.136Z,1013.41
2019-03-29T04:38:54.887Z,1013.39
2019-03-29T04:40:08.363Z,1013.39
2019-03-29T04:41:16.889Z,1013.37
2019-03-29T04:42:27.640Z,1013.45
2019-03-29T04:43:38.888Z,1013.45
2019-03-29T04:44:49.635Z,1013.42
2019-03-29T04:46:00.385Z,1013.42
2019-03-29T04:47:11.130Z,1013.46
2019-03-29T04:48:21.875Z,1013.43
2019-03-29T04:49:32.627Z,1013.43
2019-03-29T04:50:43.385Z,1013.40
2019-03-29T04:51:54.132Z,1013.43
2019-03-29T04:53:05.372Z,1013.46
2019-03-29T04:54:16.115Z,1013.48
2019-03-29T04:55:27.857Z,1013.48
2019-03-29T04:56:38.603Z,1013.50
2019-03-29T04:57:49.346Z,1013.48
2019-03-29T04:59:00.593Z,1013.49
2019-03-29T05:00:11.326Z,1013.47
2019-03-29T05:01:22.255Z,1013.50
2019-03-29T05:02:32.984Z,1013.50
2019-03-29T05:03:44.221Z,1013.46
2019-03-29T05:04:54.957Z,1013.48
2019-03-29T05:06:05.694Z,1013.50
2019-03-29T05:07:16.427Z,1013.47
2019-03-29T05:08:27.400Z,1013.49
2019-03-29T05:09:38.635Z,1013.47
2019-03-29T05:10:49.363Z,1013.49
2019-03-29T05:12:00.586Z,1013.48
2019-03-29T05:13:11.319Z,1013.47
2019-03-29T05:14:22.051Z,1013.47
2019-03-29T05:15:32.777Z,1013.48
2019-03-29T05:16:43.616Z,1013.47
2019-03-29T05:17:54.848Z,1013.48
2019-03-29T05:19:05.576Z,1013.43
2019-03-29T05:20:16.796Z,1013.42
2019-03-29T05:21:27.535Z,1013.46
2019-03-29T05:22:38.255Z,1013.49
2019-03-29T05:23:48.983Z,1013.48
2019-03-29T05:25:00.700Z,1013.47
2019-03-29T05:26:11.916Z,1013.48
2019-03-29T05:27:22.644Z,1013.54
2019-03-29T05:28:33.869Z,1013.56
2019-03-29T05:29:45.092Z,1013.56
2019-03-29T05:30:55.816Z,1013.59
2019-03-29T05:32:06.545Z,1013.58
2019-03-29T05:33:17.270Z,1013.59
2019-03-29T05:34:28.060Z,1013.59
2019-03-29T05:35:39.709Z,1013.62
2019-03-29T05:36:50.432Z,1013.62
2019-03-29T05:38:01.154Z,1013.60
2019-03-29T05:39:11.880Z,1013.60
2019-03-29T05:40:34.400Z,1013.58
2019-03-29T05:41:33.829Z,1013.63
2019-03-29T05:42:44.547Z,1013.61
2019-03-29T05:43:55.752Z,1013.58
2019-03-29T05:45:06.959Z,1013.59
2019-03-29T05:46:18.184Z,1013.58
2019-03-29T05:47:28.913Z,1013.56
2019-03-29T05:48:39.637Z,1013.59
2019-03-29T05:49:50.359Z,1013.62
2019-03-29T05:51:01.080Z,1013.57
2019-03-29T05:52:12.810Z,1013.62
2019-03-29T05:53:24.023Z,1013.60
2019-03-29T05:54:34.746Z,1013.57
2019-03-29T05:55:48.163Z,1013.55
2019-03-29T05:56:56.354Z,1013.58
2019-03-29T05:58:07.077Z,1013.57
2019-03-29T05:59:18.291Z,1013.56
2019-03-29T06:00:29.580Z,1013.60
2019-03-29T06:01:40.798Z,1013.56
2019-03-29T06:02:51.504Z,1013.53
2019-03-29T06:04:02.721Z,1013.57
2019-03-29T06:05:13.439Z,1013.57
2019-03-29T06:06:24.168Z,1013.54
2019-03-29T06:07:34.894Z,1013.61
2019-03-29T06:08:45.615Z,1013.59
2019-03-29T06:09:56.350Z,1013.62
2019-03-29T06:11:07.580Z,1013.59
2019-03-29T06:12:18.802Z,1013.60
2019-03-29T06:13:29.518Z,1013.54
2019-03-29T06:14:40.241Z,1013.55
2019-03-29T06:15:51.265Z,1013.53
2019-03-29T06:17:02.481Z,1013.54
2019-03-29T06:18:13.200Z,1013.60
2019-03-29T06:19:24.418Z,1013.61
2019-03-29T06:20:36.140Z,1013.58
2019-03-29T06:21:46.882Z,1013.56
2019-03-29T06:22:57.606Z,1013.57
2019-03-29T06:24:08.321Z,1013.57
2019-03-29T06:25:19.586Z,1013.55
2019-03-29T06:26:30.308Z,1013.55
2019-03-29T06:27:41.584Z,1013.51
2019-03-29T06:28:52.309Z,1013.51
2019-03-29T06:30:03.038Z,1013.49
2019-03-29T06:31:13.774Z,1013.52
2019-03-29T06:32:24.497Z,1013.49
2019-03-29T06:33:35.225Z,1013.47
2019-03-29T06:34:46.442Z,1013.46
2019-03-29T06:35:57.667Z,1013.47
2019-03-29T06:37:08.407Z,1013.46
2019-03-29T06:38:19.144Z,1013.44
2019-03-29T06:39:30.365Z,1013.41
2019-03-29T06:40:41.097Z,1013.43
2019-03-29T06:41:52.311Z,1013.43
2019-03-29T06:43:03.657Z,1013.35
2019-03-29T06:44:15.806Z,1013.34
2019-03-29T06:45:27.033Z,1013.33
2019-03-29T06:46:38.251Z,1013.34
2019-03-29T06:47:48.983Z,1013.34
2019-03-29T06:49:00.713Z,1013.32
2019-03-29T06:50:13.967Z,1013.33
2019-03-29T06:51:22.828Z,1013.32
2019-03-29T06:52:33.415Z,1013.28
2019-03-29T06:53:44.638Z,1013.24
2019-03-29T06:54:55.869Z,1013.27
2019-03-29T06:56:06.605Z,1013.26
2019-03-29T06:57:17.345Z,1013.27
2019-03-29T06:58:28.081Z,1013.28
2019-03-29T06:59:39.322Z,1013.30
2019-03-29T07:00:50.554Z,1013.29
2019-03-29T07:02:01.373Z,1013.32
2019-03-29T07:03:12.042Z,1013.27
2019-03-29T07:04:22.775Z,1013.30
2019-03-29T07:05:34.013Z,1013.27
2019-03-29T07:06:45.254Z,1013.28
2019-03-29T07:07:56.000Z,1013.27
2019-03-29T07:09:07.231Z,1013.31
2019-03-29T07:10:18.006Z,1013.32
2019-03-29T07:11:29.242Z,1013.29
2019-03-29T07:12:40.986Z,1013.28
2019-03-29T07:13:57.668Z,1013.24
2019-03-29T07:15:02.974Z,1013.22
2019-03-29T07:16:14.182Z,1013.22
2019-03-29T07:17:24.939Z,1013.24
2019-03-29T07:18:36.176Z,1013.23
2019-03-29T07:19:46.928Z,1013.26
2019-03-29T07:20:57.673Z,1013.25
2019-03-29T07:22:08.426Z,1013.24
2019-03-29T07:23:19.190Z,1013.21
2019-03-29T07:24:29.948Z,1013.18
2019-03-29T07:25:40.700Z,1013.08
2019-03-29T07:26:52.942Z,1013.09
2019-03-29T07:28:04.209Z,1013.11
2019-03-29T07:29:15.455Z,1013.07
2019-03-29T07:30:27.221Z,1013.08
2019-03-29T07:31:37.979Z,1013.08
2019-03-29T07:32:48.743Z,1013.08
2019-03-29T07:33:59.504Z,1013.10
2019-03-29T07:35:10.264Z,1013.10
2019-03-29T07:36:21.055Z,1013.09
2019-03-29T07:37:31.837Z,1013.10
2019-03-29T07:38:43.602Z,1013.13
2019-03-29T07:39:54.360Z,1013.11
2019-03-29T07:41:05.119Z,1013.09
2019-03-29T07:42:15.887Z,1013.08
2019-03-29T07:43:26.671Z,1013.06
2019-03-29T07:44:37.425Z,1013.11
2019-03-29T07:45:48.754Z,1013.09
2019-03-29T07:46:59.538Z,1013.10
2019-03-29T07:48:10.307Z,1013.06
2019-03-29T07:49:21.077Z,1013.10
2019-03-29T07:50:32.356Z,1013.07
2019-03-29T07:51:43.126Z,1013.04
2019-03-29T07:52:53.922Z,1013.06
2019-03-29T07:54:05.241Z,1013.06
2019-03-29T07:55:16.001Z,1013.04
2019-03-29T07:56:26.780Z,1013.05
2019-03-29T07:57:38.072Z,1012.99
2019-03-29T07:58:48.842Z,1013.00
2019-03-29T07:59:59.702Z,1012.97
2019-03-29T08:01:10.587Z,1012.99
2019-03-29T08:02:21.370Z,1012.99
2019-03-29T08:03:32.149Z,1012.93
2019-03-29T08:04:46.378Z,1012.91
2019-03-29T08:05:54.207Z,1012.94
2019-03-29T08:07:06.139Z,1012.88
2019-03-29T08:08:23.792Z,1012.81
2019-03-29T08:09:27.414Z,1012.79
2019-03-29T08:10:37.361Z,1012.76
2019-03-29T08:11:48.140Z,1012.74
2019-03-29T08:12:58.934Z,1012.74
2019-03-29T08:14:09.740Z,1012.70
2019-03-29T08:15:20.522Z,1012.74
2019-03-29T08:16:31.312Z,1012.69
2019-03-29T08:17:42.112Z,1012.66
2019-03-29T08:18:52.915Z,1012.61
2019-03-29T08:20:36.557Z,1012.59
2019-03-29T08:21:15.996Z,1012.54
2019-03-29T08:22:28.288Z,1012.58
2019-03-29T08:23:39.090Z,1012.52
2019-03-29T08:24:49.888Z,1012.51
2019-03-29T08:26:00.688Z,1012.49
2019-03-29T08:27:11.491Z,1012.49
2019-03-29T08:28:22.298Z,1012.41
2019-03-29T08:29:33.602Z,1012.36
2019-03-29T08:30:44.406Z,1012.33
2019-03-29T08:31:55.853Z,1012.32
2019-03-29T08:33:06.531Z,1012.29
2019-03-29T08:34:17.846Z,1012.27
2019-03-29T08:35:28.686Z,1012.28
2019-03-29T08:36:39.467Z,1012.24
2019-03-29T08:37:50.277Z,1012.21
2019-03-29T08:39:01.578Z,1012.18
2019-03-29T08:40:12.418Z,1012.13
2019-03-29T08:41:23.276Z,1012.12
2019-03-29T08:42:34.589Z,1012.13
2019-03-29T08:43:45.906Z,1012.13
2019-03-29T08:44:56.721Z,1012.09
2019-03-29T08:46:08.029Z,1011.97
2019-03-29T08:47:19.369Z,1011.75
2019-03-29T08:48:30.686Z,1011.40
2019-03-29T08:49:42.018Z,1010.88
2019-03-29T08:50:52.847Z,1010.31
2019-03-29T08:52:04.583Z,1009.72
2019-03-29T08:53:15.425Z,1009.27
2019-03-29T08:54:26.329Z,1008.93
2019-03-29T08:55:45.741Z,1008.70
2019-03-29T08:56:48.932Z,1008.41
2019-03-29T08:57:59.766Z,1008.26
2019-03-29T08:59:11.108Z,1008.10
2019-03-29T09:00:21.961Z,1007.92
2019-03-29T09:01:33.301Z,1007.89
2019-03-29T09:02:44.339Z,1007.81
2019-03-29T09:04:04.628Z,1007.77
2019-03-29T09:05:06.594Z,1007.86
2019-03-29T09:06:17.452Z,1007.94
2019-03-29T09:07:28.319Z,1007.94
2019-03-29T09:08:39.181Z,1008.01
2019-03-29T09:09:50.054Z,1008.10
2019-03-29T09:11:00.917Z,1008.37
2019-03-29T09:12:14.729Z,1008.89
2019-03-29T09:13:24.143Z,1009.25
2019-03-29T09:14:35.026Z,1009.47
2019-03-29T09:15:45.903Z,1009.34
2019-03-29T09:16:57.265Z,1007.98
2019-03-29T09:18:08.637Z,1007.38
2019-03-29T09:19:19.517Z,1006.94
2019-03-29T09:20:30.428Z,1006.77
2019-03-29T09:21:41.812Z,1006.81
2019-03-29T09:22:53.205Z,1006.75
2019-03-29T09:24:04.606Z,1006.84
2019-03-29T09:25:15.557Z,1006.93
2019-03-29T09:26:26.981Z,1006.85
2019-03-29T09:27:38.428Z,1006.76
2019-03-29T09:28:49.424Z,1006.74
2019-03-29T09:30:00.524Z,1006.79
2019-03-29T09:31:11.491Z,1006.77
2019-03-29T09:32:23.067Z,1006.89
2019-03-29T09:33:34.682Z,1006.88
2019-03-29T09:34:46.314Z,1007.02
2019-03-29T09:35:57.978Z,1007.25
2019-03-29T09:37:09.195Z,1007.20
2019-03-29T09:38:20.911Z,1007.19
2019-03-29T09:39:32.666Z,1007.26
2019-03-29T09:40:54.757Z,1007.08
2019-03-29T09:41:55.776Z,1006.99
2019-03-29T09:43:08.436Z,1006.65
2019-03-29T09:44:19.366Z,1007.77
2019-03-29T09:45:31.174Z,1008.51
2019-03-29T09:46:42.977Z,1008.98
2019-03-29T09:47:56.052Z,1009.07
2019-03-29T09:49:08.373Z,1008.74
2019-03-29T09:50:18.549Z,1009.45
2019-03-29T09:51:30.340Z,1010.16
2019-03-29T09:52:42.101Z,1010.91
2019-03-29T09:53:53.842Z,1011.38
2019-03-29T09:55:05.569Z,1011.97
2019-03-29T09:56:16.793Z,1012.20
2019-03-29T09:57:37.254Z,1012.57
2019-03-29T09:58:40.274Z,1012.87
2019-03-29T09:59:51.445Z,1013.05
2019-03-29T10:01:02.619Z,1013.13
2019-03-29T10:02:15.265Z,1013.12
2019-03-29T10:03:26.922Z,1013.12
2019-03-29T10:04:38.581Z,1013.04
2019-03-29T10:05:50.233Z,1013.02
2019-03-29T10:07:01.871Z,1012.89
2019-03-29T10:08:14.583Z,1012.80
2019-03-29T10:09:26.218Z,1012.74
2019-03-29T10:10:37.843Z,1012.50
2019-03-29T10:11:49.470Z,1012.16
2019-03-29T10:13:01.104Z,1011.96
2019-03-29T10:14:12.248Z,1011.74
2019-03-29T10:15:23.893Z,1011.51
2019-03-29T10:16:35.553Z,1011.04
2019-03-29T10:17:46.699Z,1010.93
2019-03-29T10:18:58.345Z,1010.94
2019-03-29T10:20:09.494Z,1011.21
2019-03-29T10:21:21.152Z,1011.34
2019-03-29T10:22:32.294Z,1011.42
2019-03-29T10:23:43.941Z,1011.52
2019-03-29T10:24:55.592Z,1011.53
2019-03-29T10:26:06.746Z,1011.47
2019-03-29T10:27:19.173Z,1011.33
2019-03-29T10:28:29.573Z,1011.37
2019-03-29T10:29:41.218Z,1011.26
2019-03-29T10:30:52.850Z,1011.24
2019-03-29T10:32:08.987Z,1011.14
2019-03-29T10:33:16.242Z,1010.90
2019-03-29T10:34:27.878Z,1010.45
2019-03-29T10:35:50.693Z,1010.33
2019-03-29T10:36:51.178Z,1010.21
2019-03-29T10:38:02.343Z,1010.33
2019-03-29T10:39:13.995Z,1010.36
2019-03-29T10:40:25.664Z,1009.96
2019-03-29T10:41:38.102Z,1009.64
2019-03-29T10:42:57.574Z,1009.52
2019-03-29T10:44:00.705Z,1009.58
2019-03-29T10:45:12.392Z,1009.77
2019-03-29T10:46:24.065Z,1010.06
2019-03-29T10:47:43.738Z,1010.05
2019-03-29T10:48:46.930Z,1010.21
2019-03-29T10:49:59.602Z,1010.20
2019-03-29T10:51:11.288Z,1010.35
2019-03-29T10:52:22.968Z,1010.52
2019-03-29T10:53:34.656Z,1010.57
2019-03-29T10:54:49.679Z,1010.68
2019-03-29T10:55:58.009Z,1010.42
2019-03-29T10:57:09.689Z,1010.26
2019-03-29T10:58:21.369Z,1010.39
2019-03-29T10:59:33.049Z,1010.31
2019-03-29T11:00:44.222Z,1010.25
2019-03-29T11:01:56.173Z,1010.45
2019-03-29T11:03:07.832Z,1010.51
2019-03-29T11:04:18.998Z,1010.89
2019-03-29T11:05:30.590Z,1010.83
2019-03-29T11:06:41.770Z,1009.96
2019-03-29T11:07:53.469Z,1009.60
2019-03-29T11:09:05.151Z,1009.32
2019-03-29T11:10:16.859Z,1009.25
2019-03-29T11:11:28.583Z,1009.17
2019-03-29T11:12:39.796Z,1009.16
2019-03-29T11:13:51.501Z,1009.47
2019-03-29T11:15:06.354Z,1009.09
2019-03-29T11:16:13.935Z,1009.16
2019-03-29T11:17:25.701Z,1007.18
2019-03-29T11:18:37.498Z,1006.82
2019-03-29T11:19:48.806Z,1005.24
2019-03-29T11:21:00.158Z,1004.77
2019-03-29T11:22:12.037Z,1005.11
2019-03-29T11:23:23.430Z,1005.92
2019-03-29T11:24:34.849Z,1005.35
2019-03-29T11:25:48.678Z,1005.72
2019-03-29T11:26:58.166Z,1006.18
2019-03-29T11:28:10.083Z,1006.56
2019-03-29T11:29:22.000Z,1007.37
2019-03-29T11:30:42.125Z,1007.95
2019-03-29T11:31:45.770Z,1008.43
2019-03-29T11:32:57.653Z,1008.87
2019-03-29T11:34:09.044Z,1009.26
2019-03-29T11:35:20.916Z,1009.53
2019-03-29T11:36:32.281Z,1009.91
2019-03-29T11:37:44.650Z,1009.63
2019-03-29T11:38:56.013Z,1009.55
2019-03-29T11:40:07.855Z,1009.71
2019-03-29T11:41:19.706Z,1009.66
2019-03-29T11:42:31.068Z,1009.70
2019-03-29T11:43:43.907Z,1009.71
2019-03-29T11:44:55.263Z,1009.53
2019-03-29T11:46:07.121Z,1009.91
2019-03-29T11:47:18.599Z,1010.38
2019-03-29T11:48:30.602Z,1008.38
2019-03-29T11:49:42.584Z,1008.40
2019-03-29T11:50:54.596Z,1007.16
2019-03-29T11:52:06.590Z,1007.21
2019-03-29T11:53:18.549Z,1006.93
2019-03-29T11:54:30.488Z,1007.24
2019-03-29T11:55:42.415Z,1007.61
2019-03-29T11:56:54.336Z,1008.18
2019-03-29T11:58:06.253Z,1008.53
2019-03-29T11:59:18.161Z,1008.69
2019-03-29T12:00:30.059Z,1008.80
2019-03-29T12:01:41.948Z,1009.20
2019-03-29T12:02:53.837Z,1009.30
2019-03-29T12:04:05.224Z,1009.11
2019-03-29T12:05:17.117Z,1009.40
2019-03-29T12:06:28.981Z,1009.95
2019-03-29T12:07:40.875Z,1009.99
2019-03-29T12:08:52.745Z,1010.24
2019-03-29T12:10:04.634Z,1010.43
2019-03-29T12:11:17.034Z,1009.07
2019-03-29T12:12:28.961Z,1008.42
2019-03-29T12:13:41.647Z,1007.60
2019-03-29T12:14:52.890Z,1007.07
2019-03-29T12:16:04.879Z,1006.46
2019-03-29T12:17:16.894Z,1006.37
2019-03-29T12:18:28.431Z,1006.60
2019-03-29T12:19:40.596Z,1006.42
2019-03-29T12:20:54.379Z,1007.25
2019-03-29T12:22:04.723Z,1007.61
2019-03-29T12:23:16.806Z,1007.89
2019-03-29T12:24:28.898Z,1008.02
2019-03-29T12:25:40.987Z,1008.01
2019-03-29T12:26:55.010Z,1008.04
2019-03-29T12:28:05.200Z,1008.09
2019-03-29T12:29:17.296Z,1008.14
2019-03-29T12:30:32.226Z,1007.60
2019-03-29T12:31:41.013Z,1007.11
2019-03-29T12:32:53.070Z,1007.74
2019-03-29T12:34:05.138Z,1007.67
2019-03-29T12:35:17.205Z,1008.17
2019-03-29T12:36:29.288Z,1008.21
2019-03-29T12:37:41.381Z,1008.29
2019-03-29T12:38:54.606Z,1007.96
2019-03-29T12:40:06.742Z,1007.87
2019-03-29T12:41:18.861Z,1007.61
2019-03-29T12:42:30.998Z,1007.23
2019-03-29T12:43:54.895Z,1006.97
2019-03-29T12:44:55.315Z,1006.28
2019-03-29T12:46:07.457Z,1006.42
2019-03-29T12:47:19.630Z,1006.45
2019-03-29T12:48:31.840Z,1006.29
2019-03-29T12:49:44.014Z,1005.64
2019-03-29T12:50:55.727Z,1005.92
2019-03-29T12:52:07.943Z,1006.12
2019-03-29T12:53:19.673Z,1005.41
2019-03-29T12:54:31.409Z,1005.13
2019-03-29T12:55:43.154Z,1004.27
2019-03-29T12:56:54.888Z,1004.38
2019-03-29T12:58:07.133Z,1004.62
2019-03-29T12:59:19.377Z,1004.43
2019-03-29T13:00:31.137Z,1004.58
2019-03-29T13:01:42.889Z,1005.05
2019-03-29T13:02:54.647Z,1004.78
2019-03-29T13:04:09.627Z,1005.16
2019-03-29T13:05:18.678Z,1004.49
2019-03-29T13:06:30.449Z,1004.30
2019-03-29T13:07:42.237Z,1004.29
2019-03-29T13:08:54.586Z,1004.42
2019-03-29T13:10:06.855Z,1004.42
2019-03-29T13:11:19.124Z,1004.43
2019-03-29T13:12:30.897Z,1004.21
2019-03-29T13:13:42.672Z,1004.49
2019-03-29T13:14:54.947Z,1004.83
2019-03-29T13:16:06.720Z,1004.84
2019-03-29T13:17:18.496Z,1004.67
2019-03-29T13:18:30.760Z,1004.37
2019-03-29T13:19:43.039Z,1004.63
2019-03-29T13:20:55.313Z,1004.48
2019-03-29T13:22:07.584Z,1004.84
2019-03-29T13:23:19.943Z,1005.20
2019-03-29T13:24:32.222Z,1005.21
2019-03-29T13:25:44.590Z,1005.41
2019-03-29T13:26:56.378Z,1005.89
2019-03-29T13:28:08.157Z,1005.76
2019-03-29T13:29:19.948Z,1005.08
2019-03-29T13:30:31.738Z,1004.96
2019-03-29T13:31:43.515Z,1004.98
2019-03-29T13:32:55.302Z,1005.16
2019-03-29T13:34:07.564Z,1005.16
2019-03-29T13:35:19.353Z,1005.05
2019-03-29T13:36:31.617Z,1005.07
2019-03-29T13:37:43.396Z,1005.05
2019-03-29T13:38:55.661Z,1004.96
2019-03-29T13:40:07.445Z,1004.82
2019-03-29T13:41:19.225Z,1005.08
2019-03-29T13:42:31.007Z,1005.33
2019-03-29T13:43:42.769Z,1005.05
2019-03-29T13:44:55.046Z,1004.75
2019-03-29T13:46:06.806Z,1005.06
2019-03-29T13:47:18.574Z,1005.08
2019-03-29T13:48:31.840Z,1005.29
2019-03-29T13:49:43.614Z,1005.04
2019-03-29T13:50:55.367Z,1005.05
2019-03-29T13:52:07.646Z,1005.14
2019-03-29T13:53:19.903Z,1005.18
2019-03-29T13:54:31.646Z,1005.30
2019-03-29T13:55:43.898Z,1005.72
2019-03-29T13:56:56.134Z,1005.91
2019-03-29T13:58:08.378Z,1006.30
2019-03-29T13:59:20.633Z,1005.97
2019-03-29T14:00:32.882Z,1006.19
2019-03-29T14:01:45.114Z,1006.30
2019-03-29T14:02:57.857Z,1006.07
2019-03-29T14:04:09.595Z,1005.72
2019-03-29T14:05:21.338Z,1005.83
2019-03-29T14:06:33.072Z,1005.29
2019-03-29T14:07:45.305Z,1005.04
2019-03-29T14:08:57.524Z,1004.90
2019-03-29T14:10:09.737Z,1004.55
2019-03-29T14:11:21.977Z,1004.80
2019-03-29T14:12:33.695Z,1004.91
2019-03-29T14:13:45.405Z,1005.36
2019-03-29T14:14:57.601Z,1005.18
2019-03-29T14:16:09.319Z,1005.08
2019-03-29T14:17:21.018Z,1005.14
2019-03-29T14:18:32.709Z,1005.36
2019-03-29T14:19:44.403Z,1005.14
2019-03-29T14:20:56.636Z,1005.26
2019-03-29T14:22:08.813Z,1005.27